Time;durP1;ratioP1;P1;durP2;ratioP2;P2;SDS_P1;SDS_P2;PMS_P1;PMS_P2;Temp;Humidity;BMP_temperature;BMP_pressure;BME280_temperature;BME280_humidity;BME280_pressure;Samples;Min_cycle;Max_cycle;Signal;HPM_P1;HPM_P2
2021/12/08 00:01:13;;;;;;;6.93;3.35;;;;;;;;;;5034527;28;20477;-64
2021/12/08 00:03:41;;;;;;;5.80;2.33;;;;;;;;;;5035644;28;20127;-64
2021/12/08 00:06:11;;;;;;;6.30;2.88;;;;;;;;;;5046143;28;20550;-64
2021/12/08 00:08:45;;;;;;;6.20;2.95;;;;;;;;;;5041175;28;20045;-64
2021/12/08 00:13:59;;;;;;;4.32;2.58;;;;;;;;;;5044869;28;20057;-64
2021/12/08 00:16:28;;;;;;;3.97;2.58;;;;;;;;;;5042239;28;20069;-64
2021/12/08 00:18:58;;;;;;;4.55;3.20;;;;;;;;;;5037673;28;20050;-64
2021/12/08 00:21:28;;;;;;;11.85;3.67;;;;;;;;;;5037134;28;20083;-64
2021/12/08 00:23:57;;;;;;;6.47;3.38;;;;;;;;;;5043553;28;21159;-64
2021/12/08 00:26:25;;;;;;;7.30;2.88;;;;;;;;;;5033379;28;20041;-64
2021/12/08 00:28:53;;;;;;;5.43;2.88;;;;;;;;;;5038728;28;20045;-64
2021/12/08 00:31:21;;;;;;;6.18;3.28;;;;;;;;;;5046352;28;20521;-64
2021/12/08 00:33:50;;;;;;;6.80;2.90;;;;;;;;;;5034135;28;20045;-64
2021/12/08 00:36:20;;;;;;;5.85;2.75;;;;;;;;;;5041185;28;20084;-64
2021/12/08 00:38:50;;;;;;;8.73;2.78;;;;;;;;;;5045970;28;20084;-64
2021/12/08 00:41:18;;;;;;;6.00;2.95;;;;;;;;;;5040817;28;20587;-64
2021/12/08 00:43:46;;;;;;;7.63;2.65;;;;;;;;;;5045301;28;20040;-64
2021/12/08 00:46:15;;;;;;;5.07;2.70;;;;;;;;;;5043893;28;20260;-64
2021/12/08 00:48:48;;;;;;;3.42;2.10;;;;;;;;;;5044412;28;20491;-64
2021/12/08 00:51:17;;;;;;;7.38;3.13;;;;;;;;;;5049484;28;20055;-64
2021/12/08 00:53:46;;;;;;;4.50;2.40;;;;;;;;;;5042218;28;20045;-64
2021/12/08 00:56:16;;;;;;;5.50;2.83;;;;;;;;;;5041091;28;20833;-64
2021/12/08 00:58:45;;;;;;;5.03;2.80;;;;;;;;;;5035773;28;20077;-64
2021/12/08 01:01:28;;;;;;;3.97;2.20;;;;;;;;;;5030125;28;20053;-64
2021/12/08 01:03:56;;;;;;;5.93;3.10;;;;;;;;;;5040353;28;20128;-64
2021/12/08 01:06:24;;;;;;;3.13;2.20;;;;;;;;;;5046008;28;20135;-64
2021/12/08 01:08:53;;;;;;;4.22;2.38;;;;;;;;;;5042716;28;20064;-64
2021/12/08 01:11:23;;;;;;;6.00;2.70;;;;;;;;;;5046490;28;20045;-65
2021/12/08 01:13:52;;;;;;;4.85;2.40;;;;;;;;;;5040919;28;20409;-64
2021/12/08 01:16:21;;;;;;;5.57;2.88;;;;;;;;;;5041560;28;20088;-64
2021/12/08 01:18:50;;;;;;;5.10;2.72;;;;;;;;;;5033238;28;20377;-64
2021/12/08 01:21:18;;;;;;;3.83;2.63;;;;;;;;;;5046743;28;20124;-64
2021/12/08 01:23:47;;;;;;;8.95;2.85;;;;;;;;;;5068763;28;20045;-64
2021/12/08 01:26:15;;;;;;;7.22;2.53;;;;;;;;;;5057924;28;20135;-64
2021/12/08 01:28:45;;;;;;;6.20;2.47;;;;;;;;;;5058996;28;20575;-64
2021/12/08 01:31:13;;;;;;;5.38;2.47;;;;;;;;;;5061007;28;20135;-64
2021/12/08 01:33:42;;;;;;;4.55;2.05;;;;;;;;;;5066735;28;20408;-64
2021/12/08 01:36:10;;;;;;;4.72;2.38;;;;;;;;;;5056638;28;20499;-64
2021/12/08 01:38:39;;;;;;;3.45;2.03;;;;;;;;;;5056173;28;20041;-64
2021/12/08 01:41:08;;;;;;;6.70;2.47;;;;;;;;;;5066107;28;20072;-64
2021/12/08 01:45:56;;;;;;;3.50;2.28;;;;;;;;;;5061041;28;20063;-64
2021/12/08 01:46:32;;;;;;;7.40;2.13;;;;;;;;;;5067377;28;20135;-64
2021/12/08 01:49:01;;;;;;;4.88;2.60;;;;;;;;;;5064461;28;20475;-64
2021/12/08 01:51:30;;;;;;;6.38;2.55;;;;;;;;;;5058530;28;20131;-64
2021/12/08 01:54:01;;;;;;;3.17;2.15;;;;;;;;;;5044273;28;20057;-64
2021/12/08 01:56:30;;;;;;;9.38;2.47;;;;;;;;;;5037498;28;20392;-64
2021/12/08 01:58:58;;;;;;;4.82;2.13;;;;;;;;;;5045816;28;20072;-64
2021/12/08 02:01:28;;;;;;;4.88;2.85;;;;;;;;;;5047609;28;20131;-64
2021/12/08 02:04:03;;;;;;;6.63;2.70;;;;;;;;;;5040695;28;20083;-64
2021/12/08 02:06:32;;;;;;;3.38;2.40;;;;;;;;;;5034711;28;20049;-64
2021/12/08 02:09:01;;;;;;;3.35;2.20;;;;;;;;;;5045329;28;20103;-64
2021/12/08 02:11:29;;;;;;;3.58;2.13;;;;;;;;;;5044090;28;20063;-64
2021/12/08 02:14:00;;;;;;;3.70;2.00;;;;;;;;;;5068031;28;20071;-64
2021/12/08 02:16:30;;;;;;;3.92;2.47;;;;;;;;;;5064850;28;20131;-64
2021/12/08 02:19:00;;;;;;;3.35;2.00;;;;;;;;;;5052638;28;20436;-64
2021/12/08 02:21:30;;;;;;;6.57;2.40;;;;;;;;;;5055789;28;20048;-64
2021/12/08 02:24:01;;;;;;;5.10;2.15;;;;;;;;;;5066281;28;20056;-64
2021/12/08 02:26:30;;;;;;;4.55;1.90;;;;;;;;;;5068697;28;20465;-64
2021/12/08 02:29:00;;;;;;;4.07;1.95;;;;;;;;;;5055654;28;20506;-64
2021/12/08 02:31:35;;;;;;;2.50;1.90;;;;;;;;;;5070545;28;20131;-64
2021/12/08 02:47:56;;;;;;;4.05;1.95;;;;;;;;;;5062397;28;20131;-64
2021/12/08 02:50:25;;;;;;;3.67;1.98;;;;;;;;;;5068711;28;20139;-64
2021/12/08 02:52:56;;;;;;;2.65;1.90;;;;;;;;;;5062433;28;20109;-64
2021/12/08 02:55:24;;;;;;;3.97;2.17;;;;;;;;;;5067513;28;20048;-64
2021/12/08 02:57:52;;;;;;;2.22;1.60;;;;;;;;;;5058495;28;20144;-64
2021/12/08 03:00:24;;;;;;;6.53;1.73;;;;;;;;;;5068315;28;20496;-64
2021/12/08 03:02:52;;;;;;;4.20;2.10;;;;;;;;;;5060646;28;20056;-64
2021/12/08 03:05:21;;;;;;;4.78;1.85;;;;;;;;;;5069057;28;20135;-64
2021/12/08 03:07:49;;;;;;;5.50;2.17;;;;;;;;;;5066064;28;20044;-64
2021/12/08 03:10:20;;;;;;;4.78;1.88;;;;;;;;;;5060804;28;20123;-64
2021/12/08 03:12:49;;;;;;;5.95;2.03;;;;;;;;;;5057301;28;20143;-64
2021/12/08 03:15:18;;;;;;;6.85;1.75;;;;;;;;;;5063254;28;20507;-64
2021/12/08 03:17:46;;;;;;;5.13;2.33;;;;;;;;;;5055907;28;20049;-64
2021/12/08 03:20:22;;;;;;;3.55;1.90;;;;;;;;;;5051304;28;20057;-64
2021/12/08 03:22:53;;;;;;;4.40;2.22;;;;;;;;;;5063166;28;20111;-64
2021/12/08 03:25:23;;;;;;;4.85;2.35;;;;;;;;;;5066690;28;20060;-64
2021/12/08 03:28:04;;;;;;;3.83;2.30;;;;;;;;;;5059792;28;20051;-64
2021/12/08 03:30:38;;;;;;;3.80;2.30;;;;;;;;;;5058654;28;20044;-64
2021/12/08 03:33:24;;;;;;;4.86;2.57;;;;;;;;;;2635801;28;10003828;-64
2021/12/08 03:35:52;;;;;;;6.35;1.98;;;;;;;;;;3614575;28;10001707;-64
2021/12/08 03:38:22;;;;;;;3.13;1.75;;;;;;;;;;4993176;28;20061;-64
2021/12/08 03:40:53;;;;;;;3.08;2.45;;;;;;;;;;4993123;28;20383;-64
2021/12/08 03:43:22;;;;;;;6.22;2.42;;;;;;;;;;5011527;28;20041;-64
2021/12/08 03:45:52;;;;;;;6.35;2.63;;;;;;;;;;5017676;28;20045;-64
2021/12/08 03:48:24;;;;;;;5.05;2.63;;;;;;;;;;5016622;28;20497;-64
2021/12/08 03:50:52;;;;;;;3.35;2.35;;;;;;;;;;5020597;28;20055;-64
2021/12/08 03:53:21;;;;;;;4.63;2.17;;;;;;;;;;5011995;28;20052;-64
2021/12/08 03:55:50;;;;;;;2.83;1.90;;;;;;;;;;5013129;28;20064;-64
2021/12/08 03:58:20;;;;;;;3.55;1.85;;;;;;;;;;5014682;28;20042;-64
2021/12/08 04:00:52;;;;;;;5.25;2.45;;;;;;;;;;5011434;28;20136;-64
2021/12/08 04:03:20;;;;;;;4.60;2.10;;;;;;;;;;5012592;28;20556;-64
2021/12/08 04:05:56;;;;;;;4.40;2.17;;;;;;;;;;5011589;28;20125;-64
2021/12/08 04:08:30;;;;;;;3.92;2.10;;;;;;;;;;5025014;28;20084;-64
2021/12/08 04:10:59;;;;;;;2.53;2.17;;;;;;;;;;5012502;28;20064;-64
2021/12/08 04:13:31;;;;;;;14.40;2.53;;;;;;;;;;5018907;28;20042;-64
2021/12/08 04:16:01;;;;;;;3.63;1.77;;;;;;;;;;5014012;28;20049;-64
2021/12/08 04:18:31;;;;;;;3.67;2.22;;;;;;;;;;5020100;28;20676;-64
2021/12/08 04:21:01;;;;;;;6.18;2.50;;;;;;;;;;5017881;28;20073;-64
2021/12/08 04:23:36;;;;;;;4.72;2.20;;;;;;;;;;5019411;28;20049;-64
2021/12/08 04:26:06;;;;;;;5.57;2.13;;;;;;;;;;5019267;28;20061;-65
2021/12/08 04:28:36;;;;;;;4.55;2.33;;;;;;;;;;5012649;28;20053;-64
2021/12/08 04:31:09;;;;;;;3.60;2.50;;;;;;;;;;5013415;28;20053;-64
2021/12/08 04:33:38;;;;;;;3.90;2.25;;;;;;;;;;5010379;28;20404;-64
2021/12/08 04:36:09;;;;;;;4.50;2.35;;;;;;;;;;5011411;28;20053;-64
2021/12/08 04:38:42;;;;;;;4.45;2.33;;;;;;;;;;5017163;28;20085;-64
2021/12/08 04:41:14;;;;;;;5.85;1.65;;;;;;;;;;5017785;28;20412;-64
2021/12/08 04:43:50;;;;;;;3.85;1.90;;;;;;;;;;5023955;28;20076;-64
2021/12/08 04:46:29;;;;;;;4.00;2.20;;;;;;;;;;5023189;28;20088;-64
2021/12/08 04:49:18;;;;;;;3.33;2.00;;;;;;;;;;5018027;28;20049;-65
2021/12/08 04:51:54;;;;;;;5.30;2.08;;;;;;;;;;5020826;28;20137;-64
2021/12/08 05:00:25;;;;;;;5.07;2.38;;;;;;;;;;4982632;28;20476;-64
2021/12/08 05:03:19;;;;;;;6.15;2.20;;;;;;;;;;5017464;28;20056;-65
2021/12/08 05:06:04;;;;;;;3.43;1.77;;;;;;;;;;5019024;28;20138;-64
2021/12/08 05:08:41;;;;;;;3.20;2.85;;;;;;;;;;5017997;28;20316;-65
2021/12/08 05:11:10;;;;;;;5.65;2.35;;;;;;;;;;5017453;28;20050;-65
2021/12/08 05:13:39;;;;;;;4.45;1.77;;;;;;;;;;5016854;28;20049;-65
2021/12/08 05:16:10;;;;;;;3.10;1.80;;;;;;;;;;5016760;28;20055;-65
2021/12/08 05:18:42;;;;;;;6.63;2.28;;;;;;;;;;5017765;28;20476;-65
2021/12/08 05:21:13;;;;;;;2.22;1.50;;;;;;;;;;5019073;28;20140;-65
2021/12/08 05:23:44;;;;;;;4.22;2.00;;;;;;;;;;5015973;28;20079;-65
2021/12/08 05:26:14;;;;;;;3.13;1.70;;;;;;;;;;5013979;28;20049;-65
2021/12/08 05:28:44;;;;;;;4.30;1.85;;;;;;;;;;5016789;28;20413;-65
2021/12/08 05:31:16;;;;;;;3.70;1.77;;;;;;;;;;5012308;28;20140;-65
2021/12/08 05:33:46;;;;;;;5.78;2.70;;;;;;;;;;5015628;28;20596;-65
2021/12/08 05:36:15;;;;;;;5.22;1.90;;;;;;;;;;5016398;28;20514;-65
2021/12/08 05:38:43;;;;;;;3.42;2.20;;;;;;;;;;5014753;28;20049;-65
2021/12/08 05:41:13;;;;;;;5.20;1.85;;;;;;;;;;5015133;28;20140;-65
2021/12/08 05:43:42;;;;;;;3.40;2.38;;;;;;;;;;5016178;28;20056;-65
2021/12/08 05:46:11;;;;;;;2.90;1.95;;;;;;;;;;5009863;28;20064;-65
2021/12/08 05:48:45;;;;;;;5.47;2.22;;;;;;;;;;5007972;28;20077;-65
2021/12/08 05:51:15;;;;;;;4.28;2.60;;;;;;;;;;5013496;28;20056;-65
2021/12/08 05:53:45;;;;;;;3.05;2.00;;;;;;;;;;5011013;28;20045;-65
2021/12/08 05:56:13;;;;;;;5.65;2.40;;;;;;;;;;5018168;28;20148;-65
2021/12/08 05:58:41;;;;;;;3.97;1.95;;;;;;;;;;5022206;28;20557;-65
2021/12/08 06:01:12;;;;;;;4.18;2.30;;;;;;;;;;5010643;28;20132;-65
2021/12/08 06:03:42;;;;;;;4.88;2.33;;;;;;;;;;5014396;28;20835;-65
2021/12/08 06:06:11;;;;;;;3.92;2.05;;;;;;;;;;5010231;28;20105;-65
2021/12/08 06:08:40;;;;;;;4.60;2.13;;;;;;;;;;5012613;28;20128;-65
2021/12/08 06:11:09;;;;;;;3.80;2.15;;;;;;;;;;5015931;28;20073;-65
2021/12/08 06:13:38;;;;;;;6.25;2.50;;;;;;;;;;5013752;28;20045;-65
2021/12/08 06:16:07;;;;;;;6.63;2.60;;;;;;;;;;5017045;28;20492;-65
2021/12/08 06:18:39;;;;;;;4.05;2.25;;;;;;;;;;5012103;28;20129;-65
2021/12/08 06:21:11;;;;;;;7.35;2.70;;;;;;;;;;5026102;28;20137;-65
2021/12/08 06:23:41;;;;;;;4.28;1.85;;;;;;;;;;5015193;28;20045;-65
2021/12/08 06:26:09;;;;;;;4.57;2.40;;;;;;;;;;5019595;28;20057;-65
2021/12/08 06:28:38;;;;;;;7.03;2.58;;;;;;;;;;5019053;28;20068;-64
2021/12/08 06:31:07;;;;;;;3.38;2.05;;;;;;;;;;5014048;28;20052;-65
2021/12/08 06:33:36;;;;;;;5.70;2.00;;;;;;;;;;5021529;28;20063;-65
2021/12/08 06:36:11;;;;;;;5.30;3.22;;;;;;;;;;5009218;28;20607;-65
2021/12/08 06:38:40;;;;;;;9.07;2.65;;;;;;;;;;5015971;28;20156;-65
2021/12/08 06:41:12;;;;;;;6.85;2.50;;;;;;;;;;5021510;28;20135;-65
2021/12/08 06:43:43;;;;;;;3.83;2.00;;;;;;;;;;5010997;28;20053;-65
2021/12/08 06:46:11;;;;;;;7.30;3.15;;;;;;;;;;5003587;28;20079;-65
2021/12/08 06:48:41;;;;;;;5.53;2.80;;;;;;;;;;5003382;28;20459;-65
2021/12/08 06:51:14;;;;;;;5.78;2.83;;;;;;;;;;5004683;28;20155;-65
2021/12/08 06:53:44;;;;;;;9.73;2.70;;;;;;;;;;5002760;28;20516;-65
2021/12/08 06:56:14;;;;;;;5.22;2.92;;;;;;;;;;5006183;28;20046;-65
2021/12/08 06:58:46;;;;;;;6.68;2.90;;;;;;;;;;5002660;28;20041;-65
2021/12/08 07:01:21;;;;;;;4.70;2.90;;;;;;;;;;5001928;28;20065;-65
2021/12/08 07:04:03;;;;;;;;;;;;;;;;;;5012579;28;20049;-65
2021/12/08 07:06:45;;;;;;;3.78;2.28;;;;;;;;;;5021398;28;20028;-65
2021/12/08 07:09:16;;;;;;;5.88;2.58;;;;;;;;;;5010807;28;20434;-65
2021/12/08 07:11:44;;;;;;;5.05;2.45;;;;;;;;;;5013024;28;20119;-65
2021/12/08 07:14:13;;;;;;;5.57;2.42;;;;;;;;;;5011261;28;20148;-65
2021/12/08 07:16:43;;;;;;;5.95;2.60;;;;;;;;;;5013491;28;20073;-65
2021/12/08 07:19:22;;;;;;;7.90;2.88;;;;;;;;;;5012267;28;20045;-65
2021/12/08 07:21:54;;;;;;;4.95;3.00;;;;;;;;;;5008602;28;20050;-65
2021/12/08 07:24:26;;;;;;;6.18;2.63;;;;;;;;;;5013694;28;20061;-65
2021/12/08 07:26:56;;;;;;;9.88;3.22;;;;;;;;;;5009884;28;20048;-65
2021/12/08 07:29:26;;;;;;;4.13;2.60;;;;;;;;;;5010796;28;20037;-65
2021/12/08 07:31:57;;;;;;;7.03;2.70;;;;;;;;;;5006360;28;20074;-65
2021/12/08 07:34:27;;;;;;;9.77;3.03;;;;;;;;;;5012116;28;20057;-65
2021/12/08 07:36:59;;;;;;;5.97;2.97;;;;;;;;;;5015136;28;20064;-65
2021/12/08 07:39:30;;;;;;;8.50;2.95;;;;;;;;;;5012180;28;20042;-65
2021/12/08 07:42:02;;;;;;;3.50;2.65;;;;;;;;;;5011271;28;20103;-65
2021/12/08 07:44:32;;;;;;;5.03;2.88;;;;;;;;;;5013813;28;20061;-65
2021/12/08 07:47:02;;;;;;;6.13;3.10;;;;;;;;;;5010450;28;20060;-65
2021/12/08 07:49:33;;;;;;;5.75;2.95;;;;;;;;;;5010593;28;20505;-65
2021/12/08 07:52:08;;;;;;;5.85;2.63;;;;;;;;;;5011932;28;20077;-65
2021/12/08 07:54:37;;;;;;;4.68;2.67;;;;;;;;;;5008650;28;20045;-65
2021/12/08 07:57:09;;;;;;;4.85;3.10;;;;;;;;;;5011922;28;20113;-65
2021/12/08 07:59:39;;;;;;;5.28;2.92;;;;;;;;;;5012428;28;20045;-65
2021/12/08 08:02:08;;;;;;;4.75;2.67;;;;;;;;;;5012893;28;20480;-65
2021/12/08 08:04:38;;;;;;;4.43;2.42;;;;;;;;;;5013088;28;20419;-65
2021/12/08 08:07:09;;;;;;;6.25;2.60;;;;;;;;;;5013240;28;20046;-65
2021/12/08 08:09:40;;;;;;;3.45;2.60;;;;;;;;;;5014290;28;20100;-65
2021/12/08 08:12:10;;;;;;;5.53;2.97;;;;;;;;;;5012837;28;20164;-65
2021/12/08 08:14:41;;;;;;;11.25;3.20;;;;;;;;;;5015800;28;20085;-65
2021/12/08 08:17:17;;;;;;;7.85;3.03;;;;;;;;;;5011600;28;20045;-65
2021/12/08 08:19:48;;;;;;;4.10;2.33;;;;;;;;;;5012187;28;20060;-65
2021/12/08 08:22:20;;;;;;;6.82;3.47;;;;;;;;;;5009655;28;20054;-65
2021/12/08 08:24:52;;;;;;;6.97;2.60;;;;;;;;;;5011143;28;20053;-65
2021/12/08 08:27:20;;;;;;;5.13;2.90;;;;;;;;;;5015225;28;20053;-65
2021/12/08 08:29:49;;;;;;;5.25;3.22;;;;;;;;;;5013751;28;20440;-65
2021/12/08 08:32:19;;;;;;;7.55;3.30;;;;;;;;;;5011507;28;20489;-65
2021/12/08 08:34:50;;;;;;;5.32;2.70;;;;;;;;;;5011520;28;20493;-65
2021/12/08 08:37:21;;;;;;;4.35;2.83;;;;;;;;;;5014254;28;20050;-65
2021/12/08 08:39:51;;;;;;;7.32;2.97;;;;;;;;;;5013584;28;20076;-65
2021/12/08 08:42:21;;;;;;;10.98;3.97;;;;;;;;;;5012422;28;20057;-65
2021/12/08 08:44:53;;;;;;;6.53;3.70;;;;;;;;;;5011224;28;20458;-65
2021/12/08 08:47:24;;;;;;;6.95;3.38;;;;;;;;;;5016638;28;20041;-66
2021/12/08 08:49:54;;;;;;;7.68;2.97;;;;;;;;;;5010955;28;20400;-65
2021/12/08 08:52:26;;;;;;;7.65;3.50;;;;;;;;;;5011092;28;20053;-65
2021/12/08 08:54:57;;;;;;;8.57;3.30;;;;;;;;;;5012448;28;20428;-65
2021/12/08 08:57:28;;;;;;;7.53;3.80;;;;;;;;;;5011606;28;20582;-65
2021/12/08 08:59:58;;;;;;;4.57;3.20;;;;;;;;;;5012407;28;20048;-65
2021/12/08 09:02:29;;;;;;;10.82;3.60;;;;;;;;;;5009923;28;20054;-65
2021/12/08 09:05:00;;;;;;;6.65;2.80;;;;;;;;;;5013670;28;20053;-65
2021/12/08 09:07:33;;;;;;;8.25;3.03;;;;;;;;;;5009984;28;20120;-65
2021/12/08 09:10:05;;;;;;;8.35;3.10;;;;;;;;;;5010759;28;20432;-65
2021/12/08 09:12:36;;;;;;;8.23;3.33;;;;;;;;;;5009947;28;20049;-65
2021/12/08 09:15:07;;;;;;;6.63;2.72;;;;;;;;;;5012875;28;20163;-65
2021/12/08 09:17:37;;;;;;;6.40;2.33;;;;;;;;;;5012287;28;20448;-65
2021/12/08 09:20:11;;;;;;;12.30;2.95;;;;;;;;;;5011556;28;20046;-64
2021/12/08 09:22:49;;;;;;;4.00;2.97;;;;;;;;;;5012970;28;20093;-65
2021/12/08 09:25:20;;;;;;;10.90;3.83;;;;;;;;;;5017422;28;20418;-64
2021/12/08 09:27:51;;;;;;;6.45;3.03;;;;;;;;;;5016779;28;20405;-65
2021/12/08 09:30:22;;;;;;;5.15;2.60;;;;;;;;;;5016224;28;20061;-65
2021/12/08 09:32:52;;;;;;;7.20;3.15;;;;;;;;;;5015587;28;20046;-65
2021/12/08 09:35:23;;;;;;;5.00;2.88;;;;;;;;;;5012912;28;20148;-65
2021/12/08 09:37:55;;;;;;;5.53;2.90;;;;;;;;;;5014035;28;20120;-65
2021/12/08 09:40:28;;;;;;;5.90;2.70;;;;;;;;;;5015377;28;20092;-65
2021/12/08 09:42:58;;;;;;;4.75;3.17;;;;;;;;;;5011661;28;20461;-65
2021/12/08 09:45:31;;;;;;;5.00;2.45;;;;;;;;;;5014792;28;20090;-65
2021/12/08 09:48:02;;;;;;;7.22;3.20;;;;;;;;;;5012089;28;20049;-65
2021/12/08 09:50:31;;;;;;;8.00;3.15;;;;;;;;;;5016069;28;20196;-65
2021/12/08 09:53:01;;;;;;;6.65;3.55;;;;;;;;;;5016452;28;20072;-65
2021/12/08 09:55:30;;;;;;;4.97;2.92;;;;;;;;;;5015385;28;20070;-65
2021/12/08 09:57:59;;;;;;;4.50;2.60;;;;;;;;;;5015272;28;20063;-65
2021/12/08 10:00:32;;;;;;;4.65;2.67;;;;;;;;;;5018580;28;20104;-66
2021/12/08 10:03:03;;;;;;;6.13;2.75;;;;;;;;;;5019620;28;20037;-65
2021/12/08 10:05:33;;;;;;;5.10;3.03;;;;;;;;;;5016279;28;20049;-65
2021/12/08 10:08:05;;;;;;;7.45;3.15;;;;;;;;;;5015044;28;20458;-65
2021/12/08 10:10:34;;;;;;;15.15;3.17;;;;;;;;;;5016396;28;20155;-65
2021/12/08 10:13:03;;;;;;;7.43;2.80;;;;;;;;;;5019207;28;20456;-65
2021/12/08 10:15:33;;;;;;;7.78;3.03;;;;;;;;;;5012784;28;20046;-64
2021/12/08 10:18:02;;;;;;;6.45;2.75;;;;;;;;;;5013701;28;20045;-65
2021/12/08 10:20:32;;;;;;;5.97;2.42;;;;;;;;;;5015716;28;20057;-65
2021/12/08 10:23:14;;;;;;;4.43;2.80;;;;;;;;;;5013835;28;20058;-63
2021/12/08 10:25:44;;;;;;;5.15;3.20;;;;;;;;;;5020116;28;20045;-63
2021/12/08 10:28:14;;;;;;;4.95;3.08;;;;;;;;;;5013273;28;20049;-63
2021/12/08 10:30:47;;;;;;;6.47;3.00;;;;;;;;;;5011192;28;20073;-63
2021/12/08 10:33:36;;;;;;;4.63;2.75;;;;;;;;;;5013753;28;20439;-63
2021/12/08 10:36:20;;;;;;;6.22;3.10;;;;;;;;;;5015685;28;20049;-63
2021/12/08 10:38:51;;;;;;;7.20;3.00;;;;;;;;;;5014500;28;20131;-64
2021/12/08 10:41:19;;;;;;;6.47;3.53;;;;;;;;;;5012327;28;20054;-64
2021/12/08 10:44:01;;;;;;;5.75;2.60;;;;;;;;;;5013964;28;20045;-64
2021/12/08 10:46:37;;;;;;;5.30;2.83;;;;;;;;;;5012886;28;20057;-64
2021/12/08 10:49:15;;;;;;;6.30;2.88;;;;;;;;;;5009830;28;20771;-64
2021/12/08 10:54:39;;;;;;;5.45;3.13;;;;;;;;;;4980266;28;20120;-64
2021/12/08 10:57:21;;;;;;;8.85;3.00;;;;;;;;;;5011507;28;20105;-64
2021/12/08 10:59:57;;;;;;;4.57;2.72;;;;;;;;;;5014067;28;20046;-64
2021/12/08 11:02:40;;;;;;;6.47;2.80;;;;;;;;;;5011635;28;20084;-64
2021/12/08 11:05:28;;;;;;;6.90;2.88;;;;;;;;;;5014530;28;20072;-64
2021/12/08 11:08:01;;;;;;;5.57;2.85;;;;;;;;;;5012395;28;20096;-64
2021/12/08 11:10:32;;;;;;;5.63;2.53;;;;;;;;;;5015496;28;20053;-64
2021/12/08 11:13:02;;;;;;;5.63;2.53;;;;;;;;;;5011610;28;20053;-64
2021/12/08 11:15:32;;;;;;;8.38;2.95;;;;;;;;;;5013439;28;20041;-64
2021/12/08 11:18:09;;;;;;;7.07;3.10;;;;;;;;;;5013064;28;20068;-64
2021/12/08 11:20:43;;;;;;;7.50;3.17;;;;;;;;;;5013818;28;20049;-64
2021/12/08 11:23:15;;;;;;;2.75;2.42;;;;;;;;;;5012157;28;20057;-63
2021/12/08 11:25:46;;;;;;;5.82;3.33;;;;;;;;;;5012302;28;20178;-64
2021/12/08 11:28:35;;;;;;;5.50;3.28;;;;;;;;;;5010194;28;20052;-64
2021/12/08 11:31:10;;;;;;;6.95;3.03;;;;;;;;;;5010625;28;21277;-64
2021/12/08 11:33:42;;;;;;;7.70;3.65;;;;;;;;;;5013879;28;20049;-64
2021/12/08 11:36:12;;;;;;;4.88;2.92;;;;;;;;;;5012482;28;20069;-63
2021/12/08 11:38:41;;;;;;;6.70;3.70;;;;;;;;;;5012923;28;20049;-63
2021/12/08 11:41:23;;;;;;;6.70;3.15;;;;;;;;;;5011878;28;20049;-64
2021/12/08 11:43:52;;;;;;;5.05;2.88;;;;;;;;;;5014951;28;20037;-64
2021/12/08 11:46:22;;;;;;;5.80;2.47;;;;;;;;;;5012509;28;20057;-64
2021/12/08 11:49:03;;;;;;;6.55;2.78;;;;;;;;;;5009173;28;20050;-64
2021/12/08 11:51:35;;;;;;;4.93;2.80;;;;;;;;;;5014535;28;20073;-64
2021/12/08 11:54:04;;;;;;;9.38;3.47;;;;;;;;;;5014691;28;20046;-64
2021/12/08 11:56:35;;;;;;;8.50;2.72;;;;;;;;;;5013483;28;20196;-64
2021/12/08 11:59:05;;;;;;;6.15;3.05;;;;;;;;;;5012139;28;20807;-64
2021/12/08 12:01:34;;;;;;;5.03;2.72;;;;;;;;;;5013679;28;20554;-64
2021/12/08 12:04:02;;;;;;;4.32;3.17;;;;;;;;;;5014291;28;20041;-64
2021/12/08 12:06:31;;;;;;;4.40;2.90;;;;;;;;;;5011660;28;20096;-64
2021/12/08 12:09:00;;;;;;;5.38;2.97;;;;;;;;;;5012431;28;20121;-64
2021/12/08 12:11:52;;;;;;;5.28;2.70;;;;;;;;;;5009656;28;20183;-64
2021/12/08 12:14:22;;;;;;;6.35;3.38;;;;;;;;;;5010927;28;20050;-64
2021/12/08 12:16:50;;;;;;;5.20;3.05;;;;;;;;;;5011544;28;20162;-64
2021/12/08 12:19:21;;;;;;;5.13;3.10;;;;;;;;;;5012044;28;20050;-64
2021/12/08 12:21:58;;;;;;;5.28;3.08;;;;;;;;;;5012180;28;20046;-64
2021/12/08 12:24:39;;;;;;;4.63;2.85;;;;;;;;;;5011491;28;20053;-64
2021/12/08 12:27:27;;;;;;;5.63;3.10;;;;;;;;;;5014103;28;20046;-64
2021/12/08 12:30:04;;;;;;;4.53;3.38;;;;;;;;;;5009212;28;20072;-64
2021/12/08 12:32:33;;;;;;;8.25;3.20;;;;;;;;;;5011041;28;20053;-64
2021/12/08 12:35:13;;;;;;;4.70;2.92;;;;;;;;;;5011032;28;20042;-64
2021/12/08 12:37:42;;;;;;;3.92;3.25;;;;;;;;;;5015256;28;20050;-64
2021/12/08 12:40:12;;;;;;;8.05;3.08;;;;;;;;;;5009504;28;20050;-63
2021/12/08 12:42:46;;;;;;;6.50;3.22;;;;;;;;;;5012884;28;20144;-63
2021/12/08 12:45:15;;;;;;;6.68;3.30;;;;;;;;;;5009601;28;20063;-63
2021/12/08 12:47:44;;;;;;;4.95;3.03;;;;;;;;;;5010021;28;20049;-64
2021/12/08 12:50:19;;;;;;;6.72;2.97;;;;;;;;;;5010843;28;20038;-64
2021/12/08 12:52:50;;;;;;;8.43;3.55;;;;;;;;;;5011159;28;20049;-64
2021/12/08 12:55:20;;;;;;;7.05;3.65;;;;;;;;;;5012772;28;20909;-63
2021/12/08 12:58:08;;;;;;;11.32;3.05;;;;;;;;;;5010229;28;20229;-63
2021/12/08 13:00:40;;;;;;;7.93;2.65;;;;;;;;;;5013915;28;20433;-64
2021/12/08 13:03:09;;;;;;;4.10;2.80;;;;;;;;;;5013380;28;20141;-64
2021/12/08 13:05:50;;;;;;;5.97;2.67;;;;;;;;;;5014996;28;20089;-64
2021/12/08 13:08:30;;;;;;;4.22;2.65;;;;;;;;;;5018839;28;20069;-64
2021/12/08 13:11:01;;;;;;;3.60;2.15;;;;;;;;;;5015757;28;20053;-64
2021/12/08 13:13:46;;;;;;;5.43;2.38;;;;;;;;;;5012154;28;20038;-64
2021/12/08 13:16:26;;;;;;;6.28;2.40;;;;;;;;;;5014043;28;20074;-64
2021/12/08 13:18:56;;;;;;;4.05;2.42;;;;;;;;;;5014330;28;21260;-64
2021/12/08 13:21:40;;;;;;;4.20;2.20;;;;;;;;;;5014146;28;20697;-64
2021/12/08 13:24:23;;;;;;;4.75;2.17;;;;;;;;;;5013424;28;20057;-64
2021/12/08 13:26:59;;;;;;;4.65;2.53;;;;;;;;;;5015006;28;20045;-64
2021/12/08 13:29:28;;;;;;;7.38;3.30;;;;;;;;;;5014893;28;20075;-64
2021/12/08 13:32:10;;;;;;;6.85;2.45;;;;;;;;;;5013028;28;20045;-64
2021/12/08 13:34:40;;;;;;;5.25;2.75;;;;;;;;;;5012679;28;20046;-64
2021/12/08 13:37:20;;;;;;;4.63;2.40;;;;;;;;;;5013393;28;20045;-64
2021/12/08 13:39:49;;;;;;;3.13;2.25;;;;;;;;;;5015087;28;20477;-65
2021/12/08 13:42:48;;;;;;;3.78;2.22;;;;;;;;;;5014799;28;20132;-65
2021/12/08 13:45:17;;;;;;;5.75;2.53;;;;;;;;;;5015424;28;20064;-65
2021/12/08 13:47:48;;;;;;;4.80;2.05;;;;;;;;;;5014378;28;20050;-65
2021/12/08 13:50:18;;;;;;;3.47;2.50;;;;;;;;;;5017654;28;20135;-64
2021/12/08 13:53:06;;;;;;;4.72;2.72;;;;;;;;;;5012330;28;20054;-64
2021/12/08 13:55:35;;;;;;;4.30;2.47;;;;;;;;;;5017332;28;20171;-64
2021/12/08 13:58:12;;;;;;;5.97;2.72;;;;;;;;;;5013098;28;20555;-64
2021/12/08 14:00:41;;;;;;;7.07;2.83;;;;;;;;;;5012902;28;20497;-65
2021/12/08 14:03:15;;;;;;;4.53;2.55;;;;;;;;;;5013470;28;20053;-64
2021/12/08 14:05:46;;;;;;;3.90;2.50;;;;;;;;;;5013400;28;20057;-64
2021/12/08 14:08:17;;;;;;;5.00;2.22;;;;;;;;;;5016579;28;20584;-65
2021/12/08 14:10:47;;;;;;;5.25;2.53;;;;;;;;;;5018355;28;20123;-64
2021/12/08 14:13:17;;;;;;;5.57;2.67;;;;;;;;;;5018073;28;20046;-64
2021/12/08 14:15:46;;;;;;;6.20;2.75;;;;;;;;;;5013794;28;20069;-64
2021/12/08 14:18:18;;;;;;;3.22;2.28;;;;;;;;;;5017235;28;20501;-64
2021/12/08 14:20:49;;;;;;;7.05;2.80;;;;;;;;;;5012307;28;20061;-64
2021/12/08 14:23:18;;;;;;;5.70;3.22;;;;;;;;;;5014578;28;21913;-65
2021/12/08 14:25:48;;;;;;;4.93;2.97;;;;;;;;;;5015593;28;20823;-64
2021/12/08 14:28:38;;;;;;;8.02;2.97;;;;;;;;;;5014049;28;20057;-65
2021/12/08 14:31:09;;;;;;;5.60;3.28;;;;;;;;;;5010084;28;20959;-65
2021/12/08 14:33:39;;;;;;;8.48;3.38;;;;;;;;;;5013357;28;20472;-65
2021/12/08 14:36:09;;;;;;;5.90;2.95;;;;;;;;;;5012430;28;20064;-64
2021/12/08 14:38:39;;;;;;;6.38;2.97;;;;;;;;;;5016151;28;20060;-65
2021/12/08 14:41:21;;;;;;;5.70;2.90;;;;;;;;;;5013637;28;20049;-65
2021/12/08 14:43:52;;;;;;;4.15;2.67;;;;;;;;;;5013383;28;20056;-65
2021/12/08 14:46:24;;;;;;;6.90;2.70;;;;;;;;;;5011934;28;20103;-64
2021/12/08 14:49:00;;;;;;;8.10;3.05;;;;;;;;;;5012881;28;20358;-64
2021/12/08 14:51:28;;;;;;;;;;;;;;;;;;5014565;28;20452;-65
2021/12/08 14:54:09;;;;;;;6.38;2.55;;;;;;;;;;5012729;28;21205;-64
2021/12/08 14:56:38;;;;;;;4.75;2.75;;;;;;;;;;5014947;28;20136;-65
2021/12/08 14:59:07;;;;;;;6.00;2.67;;;;;;;;;;5013580;28;20402;-65
2021/12/08 15:01:36;;;;;;;9.65;3.28;;;;;;;;;;5013300;28;20108;-64
2021/12/08 15:04:06;;;;;;;3.72;2.83;;;;;;;;;;5013012;28;20099;-65
2021/12/08 15:06:35;;;;;;;5.18;3.20;;;;;;;;;;5013213;28;20045;-64
2021/12/08 15:09:13;;;;;;;4.53;2.88;;;;;;;;;;5013823;28;20179;-64
2021/12/08 15:11:42;;;;;;;8.00;3.38;;;;;;;;;;5012957;28;20120;-65
2021/12/08 15:14:14;;;;;;;7.55;3.03;;;;;;;;;;5013157;28;20041;-64
2021/12/08 15:16:46;;;;;;;6.00;3.15;;;;;;;;;;5010177;28;20521;-64
2021/12/08 15:19:16;;;;;;;6.78;3.28;;;;;;;;;;5011034;28;20041;-65
2021/12/08 15:21:49;;;;;;;8.05;2.95;;;;;;;;;;5005950;28;20523;-65
2021/12/08 15:24:21;;;;;;;4.88;2.90;;;;;;;;;;5013519;28;20077;-64
2021/12/08 15:26:50;;;;;;;7.40;3.38;;;;;;;;;;5012730;28;20087;-64
2021/12/08 15:29:19;;;;;;;6.60;3.75;;;;;;;;;;5015971;28;20071;-65
2021/12/08 15:31:54;;;;;;;6.97;3.17;;;;;;;;;;5023622;28;20488;-65
2021/12/08 15:34:26;;;;;;;8.75;3.33;;;;;;;;;;5019040;28;20348;-64
2021/12/08 15:36:56;;;;;;;9.63;3.30;;;;;;;;;;5028147;28;20097;-64